createdAt,value
2022-10-01T00:01:01.882Z,99756.03
2022-10-01T00:03:29.607Z,99753.44
2022-10-01T00:06:06.216Z,99747.41
2022-10-01T00:08:34.200Z,99747.41
2022-10-01T00:11:01.870Z,99754.34
2022-10-01T00:13:32.437Z,99752.59
2022-10-01T00:16:00.653Z,99750.88
2022-10-01T00:18:27.728Z,99745.69
2022-10-01T00:20:54.804Z,99748.28
2022-10-01T00:23:21.756Z,99742.25
2022-10-01T00:25:50.316Z,99744.84
2022-10-01T00:28:17.531Z,99736.19
2022-10-01T00:30:48.148Z,99739.66
2022-10-01T00:33:15.169Z,99743.06
2022-10-01T00:35:42.221Z,99736.16
2022-10-01T00:38:09.373Z,99730.13
2022-10-01T00:40:36.413Z,99737.94
2022-10-01T00:43:28.863Z,99725.81
2022-10-01T00:45:59.727Z,99729.28
2022-10-01T00:48:28.788Z,99727.56
2022-10-01T00:50:56.632Z,99731.88
2022-10-01T00:53:24.627Z,99724.97
2022-10-01T00:55:55.325Z,99731.88
2022-10-01T00:58:24.279Z,99728.41
2022-10-01T01:00:51.923Z,99727.56
2022-10-01T01:03:18.859Z,99728.41
2022-10-01T01:05:47.849Z,99729.28
2022-10-01T01:08:15.585Z,99722.38
2022-10-01T01:11:07.076Z,99726.69
2022-10-01T01:13:50.376Z,99719.78
2022-10-01T01:16:52.689Z,99724.13
2022-10-01T01:19:43.433Z,99720.66
2022-10-01T01:22:11.914Z,99725.00
2022-10-01T01:24:50.936Z,99724.13
2022-10-01T01:27:37.922Z,99718.97
2022-10-01T01:30:12.201Z,99723.25
2022-10-01T01:33:04.951Z,99720.66
2022-10-01T01:35:42.250Z,99720.69
2022-10-01T01:38:11.529Z,99712.03
2022-10-01T01:40:39.653Z,99714.63
2022-10-01T01:43:10.544Z,99716.34
2022-10-01T01:45:40.260Z,99712.91
2022-10-01T01:48:10.019Z,99712.03
2022-10-01T01:50:44.830Z,99712.06
2022-10-01T01:53:11.923Z,99711.19
2022-10-01T01:55:39.204Z,99709.47
2022-10-01T01:58:06.361Z,99708.59
2022-10-01T02:00:33.474Z,99709.44
2022-10-01T02:03:00.663Z,99699.09
2022-10-01T02:05:31.694Z,99705.13
2022-10-01T02:07:58.588Z,99704.28
2022-10-01T02:10:56.621Z,99702.53
2022-10-01T02:13:31.272Z,99699.97
2022-10-01T02:16:23.193Z,99695.63
2022-10-01T02:19:14.736Z,99695.66
2022-10-01T02:21:52.335Z,99688.75
2022-10-01T02:24:39.704Z,99692.22
2022-10-01T02:27:11.834Z,99684.44
2022-10-01T02:29:39.947Z,99681.84
2022-10-01T02:32:07.230Z,99685.28
2022-10-01T02:34:34.573Z,99683.56
2022-10-01T02:37:04.414Z,99674.94
2022-10-01T02:39:33.425Z,99676.66
2022-10-01T02:42:00.978Z,99677.53
2022-10-01T02:44:37.946Z,99679.28
2022-10-01T02:47:08.944Z,99678.41
2022-10-01T02:49:36.438Z,99679.25
2022-10-01T02:52:09.719Z,99674.94
2022-10-01T02:54:58.182Z,99690.47
2022-10-01T02:57:28.961Z,99678.38
2022-10-01T03:00:01.647Z,99679.28
2022-10-01T03:02:29.850Z,99670.63
2022-10-01T03:04:57.605Z,99669.75
2022-10-01T03:07:25.690Z,99666.31
2022-10-01T03:09:52.876Z,99663.72
2022-10-01T03:12:20.423Z,99665.47
2022-10-01T03:14:47.661Z,99660.28
2022-10-01T03:17:15.224Z,99655.97
2022-10-01T03:19:42.599Z,99655.09
2022-10-01T03:22:13.046Z,99656.84
2022-10-01T03:24:40.293Z,99655.09
2022-10-01T03:27:07.297Z,99655.97
2022-10-01T03:29:34.281Z,99654.22
2022-10-01T03:32:01.541Z,99649.06
2022-10-01T03:34:28.943Z,99650.78
2022-10-01T03:36:55.999Z,99651.63
2022-10-01T03:39:22.865Z,99653.38
2022-10-01T03:41:50.172Z,99649.91
2022-10-01T03:44:17.659Z,99647.31
2022-10-01T03:46:44.533Z,99641.31
2022-10-01T03:49:11.556Z,99645.59
2022-10-01T03:51:38.561Z,99643.88
2022-10-01T03:54:06.267Z,99645.59
2022-10-01T03:56:33.936Z,99637.84
2022-10-01T03:59:01.024Z,99639.56
2022-10-01T04:01:28.382Z,99635.25
2022-10-01T04:03:55.265Z,99636.97
2022-10-01T04:06:22.266Z,99635.22
2022-10-01T04:08:49.465Z,99632.63
2022-10-01T04:11:16.635Z,99636.91
2022-10-01T04:13:43.688Z,99632.63
2022-10-01T04:16:11.001Z,99630.91
2022-10-01T04:18:38.027Z,99630.88
2022-10-01T04:21:05.140Z,99635.16
2022-10-01T04:23:32.116Z,99631.72
2022-10-01T04:26:03.252Z,99635.19
2022-10-01T04:28:31.044Z,99640.38
2022-10-01T04:31:16.414Z,99634.31
2022-10-01T04:33:44.914Z,99642.94
2022-10-01T04:36:12.113Z,99640.38
2022-10-01T04:38:39.104Z,99642.94
2022-10-01T04:41:06.453Z,99641.22
2022-10-01T04:43:33.417Z,99636.06
2022-10-01T04:46:00.391Z,99633.50
2022-10-01T04:48:27.570Z,99637.78
2022-10-01T04:50:54.612Z,99647.25
2022-10-01T04:53:21.650Z,99641.25
2022-10-01T04:55:48.714Z,99642.09
2022-10-01T04:58:15.941Z,99642.09
2022-10-01T05:00:43.068Z,99640.41
2022-10-01T05:03:11.054Z,99635.25
2022-10-01T05:05:39.139Z,99637.00
2022-10-01T05:08:06.539Z,99638.72
2022-10-01T05:10:34.151Z,99643.03
2022-10-01T05:13:02.479Z,99642.16
2022-10-01T05:15:30.294Z,99640.44
2022-10-01T05:17:57.332Z,99636.09
2022-10-01T05:20:26.169Z,99629.13
2022-10-01T05:22:54.635Z,99640.31
2022-10-01T05:25:21.556Z,99635.97
2022-10-01T05:27:48.707Z,99634.22
2022-10-01T05:30:24.521Z,99636.78
2022-10-01T05:32:56.468Z,99634.94
2022-10-01T05:35:23.965Z,99634.03
2022-10-01T05:38:01.566Z,99625.38
2022-10-01T05:40:29.913Z,99623.66
2022-10-01T05:42:58.489Z,99623.66
2022-10-01T05:45:27.951Z,99618.47
2022-10-01T05:47:59.417Z,99626.22
2022-10-01T05:50:27.165Z,99620.16
2022-10-01T05:52:55.225Z,99614.06
2022-10-01T05:55:23.349Z,99611.44
2022-10-01T05:57:58.194Z,99607.03
2022-10-01T06:00:28.513Z,99606.97
2022-10-01T06:03:00.076Z,99606.03
2022-10-01T06:05:28.427Z,99604.25
2022-10-01T06:07:55.386Z,99604.16
2022-10-01T06:10:23.067Z,99609.25
2022-10-01T06:12:50.115Z,99596.22
2022-10-01T06:15:18.278Z,99596.97
2022-10-01T06:17:45.563Z,99603.78
2022-10-01T06:20:19.541Z,99595.06
2022-10-01T06:22:54.344Z,99601.00
2022-10-01T06:25:21.724Z,99595.69
2022-10-01T06:27:58.164Z,99590.34
2022-10-01T06:30:32.129Z,99585.88
2022-10-01T06:33:08.478Z,99586.63
2022-10-01T06:35:36.804Z,99582.19
2022-10-01T06:38:03.850Z,99580.41
2022-10-01T06:42:58.868Z,99571.47
2022-10-01T06:45:30.024Z,99573.06
2022-10-01T06:48:04.386Z,99565.97
2022-10-01T06:50:32.420Z,99564.03
2022-10-01T07:14:48.170Z,99539.25
2022-10-01T07:17:15.301Z,99536.13
2022-10-01T07:19:42.603Z,99540.88
2022-10-01T07:22:10.978Z,99535.53
2022-10-01T07:24:38.478Z,99530.09
2022-10-01T07:27:07.603Z,99520.34
2022-10-01T07:29:35.043Z,99524.47
2022-10-01T07:32:02.344Z,99518.16
2022-10-01T07:34:31.145Z,99524.97
2022-10-01T07:36:58.090Z,99521.28
2022-10-01T07:39:25.040Z,99499.22
2022-10-01T07:41:52.176Z,99501.53
2022-10-01T07:44:19.782Z,99497.78
2022-10-01T07:46:47.260Z,99499.25
2022-10-01T07:49:15.141Z,99488.66
2022-10-01T07:51:44.019Z,99492.06
2022-10-01T07:54:11.377Z,99486.03
2022-10-01T07:56:38.664Z,99486.03
2022-10-01T07:59:05.997Z,99477.06
2022-10-01T08:01:33.661Z,99473.06
2022-10-01T08:04:01.234Z,99473.63
2022-10-01T08:06:28.438Z,99476.66
2022-10-01T08:08:55.508Z,99469.34
2022-10-01T08:11:22.768Z,99470.97
2022-10-01T08:13:49.857Z,99476.09
2022-10-01T08:16:16.865Z,99468.25
2022-10-01T08:18:43.885Z,99467.19
2022-10-01T08:21:10.750Z,99457.28
2022-10-01T08:23:37.961Z,99454.34
2022-10-01T08:26:07.561Z,99454.94
2022-10-01T08:28:37.342Z,99455.72
2022-10-01T08:31:09.980Z,99443.25
2022-10-01T08:33:38.487Z,99441.22
2022-10-01T08:36:09.683Z,99441.94
2022-10-01T08:38:37.610Z,99441.56
2022-10-01T08:41:23.216Z,99443.19
2022-10-01T08:43:51.906Z,99431.81
2022-10-01T08:46:21.556Z,99437.13
2022-10-01T08:48:57.185Z,99430.47
2022-10-01T08:51:32.962Z,99428.00
2022-10-01T08:54:22.366Z,99432.22
2022-10-01T08:56:49.474Z,99421.75
2022-10-01T08:59:32.680Z,99414.59
2022-10-01T09:01:59.827Z,99397.63
2022-10-01T09:04:27.569Z,99410.94
2022-10-01T09:07:10.239Z,99411.28
2022-10-01T09:09:56.204Z,99396.00
2022-10-01T09:12:31.889Z,99397.56
2022-10-01T09:15:07.278Z,99396.84
2022-10-01T09:17:55.657Z,99390.63
2022-10-01T09:20:40.934Z,99386.75
2022-10-01T09:23:17.833Z,99381.59
2022-10-01T09:25:50.298Z,99384.09
2022-10-01T09:28:24.938Z,99381.53
2022-10-01T09:31:12.403Z,99369.09
2022-10-01T09:33:50.318Z,99368.97
2022-10-01T09:36:30.445Z,99365.13
2022-10-01T09:39:02.465Z,99362.22
2022-10-01T09:41:31.466Z,99361.97
2022-10-01T09:43:58.626Z,99362.06
2022-10-01T09:46:26.636Z,99355.03
2022-10-01T09:49:05.031Z,99352.34
2022-10-01T09:51:41.355Z,99352.53
2022-10-01T09:54:20.624Z,99362.84
2022-10-01T09:56:59.085Z,99362.41
2022-10-01T09:59:38.672Z,99349.06
2022-10-01T10:02:15.258Z,99344.31
2022-10-01T10:04:42.241Z,99338.03
2022-10-01T10:07:18.128Z,99340.66
2022-10-01T10:09:45.658Z,99333.44
2022-10-01T10:12:32.208Z,99330.56
2022-10-01T10:15:07.379Z,99328.06
2022-10-01T10:17:37.970Z,99326.47
2022-10-01T10:20:21.196Z,99332.97
2022-10-01T10:22:48.097Z,99328.00
2022-10-01T10:25:22.418Z,99326.47
2022-10-01T10:27:55.607Z,99319.28
2022-10-01T10:30:26.471Z,99320.50
2022-10-01T10:32:57.165Z,99312.91
2022-10-01T10:35:29.040Z,99309.53
2022-10-01T10:37:59.620Z,99301.00
2022-10-01T10:40:43.566Z,99295.03
2022-10-01T10:43:25.030Z,99286.63
2022-10-01T10:45:59.085Z,99280.34
2022-10-01T10:48:31.851Z,99280.06
2022-10-01T10:51:05.070Z,99274.06
2022-10-01T10:53:45.730Z,99277.03
2022-10-01T10:56:22.993Z,99256.72
2022-10-01T10:58:51.767Z,99264.25
2022-10-01T11:01:29.460Z,99255.91
2022-10-01T11:04:00.345Z,99263.50
2022-10-01T11:06:27.542Z,99259.09
2022-10-01T11:09:05.127Z,99257.75
2022-10-01T11:11:43.969Z,99248.84
2022-10-01T11:14:29.534Z,99236.84
2022-10-01T11:17:25.014Z,99247.72
2022-10-01T11:20:22.968Z,99235.50
2022-10-01T11:23:05.171Z,99233.00
2022-10-01T11:25:56.953Z,99229.44
2022-10-01T11:28:47.925Z,99222.06
2022-10-01T11:31:22.867Z,99223.63
2022-10-01T11:34:02.244Z,99220.66
2022-10-01T11:37:04.802Z,99215.59
2022-10-01T11:39:34.304Z,99213.78
2022-10-01T11:42:13.909Z,99204.72
2022-10-01T11:44:51.482Z,99205.28
2022-10-01T11:47:25.592Z,99201.63
2022-10-01T11:49:55.134Z,99202.19
2022-10-01T11:52:56.776Z,99197.13
2022-10-01T11:55:45.202Z,99200.84
2022-10-01T11:58:35.772Z,99188.06
2022-10-01T12:01:12.949Z,99195.50
2022-10-01T12:03:58.690Z,99191.13
2022-10-01T12:06:51.781Z,99184.94
2022-10-01T12:09:26.333Z,99173.78
2022-10-01T12:12:01.833Z,99184.50
2022-10-01T12:14:37.606Z,99174.56
2022-10-01T12:17:27.675Z,99168.78
2022-10-01T12:19:57.197Z,99162.31
2022-10-01T12:22:28.409Z,99168.16
2022-10-01T12:24:55.669Z,99163.34
2022-10-01T12:27:22.529Z,99152.91
2022-10-01T12:30:29.317Z,99151.66
2022-10-01T12:33:20.929Z,99146.16
2022-10-01T12:35:59.117Z,99149.97
2022-10-01T12:38:40.716Z,99150.25
2022-10-01T12:41:30.077Z,99142.69
2022-10-01T12:44:18.864Z,99142.19
2022-10-01T12:46:54.904Z,99138.84
2022-10-01T12:49:47.704Z,99132.81
2022-10-01T12:52:42.436Z,99129.41
2022-10-01T12:55:12.469Z,99125.84
2022-10-01T12:58:06.959Z,99126.69
2022-10-01T13:00:43.232Z,99117.19
2022-10-01T13:03:28.538Z,99125.00
2022-10-01T13:06:33.309Z,99115.00
2022-10-01T13:09:05.510Z,99108.94
2022-10-01T13:11:32.356Z,99106.19
2022-10-01T13:14:01.104Z,99113.44
2022-10-01T13:16:49.972Z,99104.13
2022-10-01T13:19:26.144Z,99101.19
2022-10-01T13:22:45.310Z,99097.44
2022-10-01T13:25:31.831Z,99103.81
2022-10-01T13:27:58.832Z,99101.41
2022-10-01T13:30:28.178Z,99100.75
2022-10-01T13:32:58.529Z,99094.53
2022-10-01T13:35:35.786Z,99085.00
2022-10-01T13:38:30.863Z,99079.66
2022-10-01T13:41:03.424Z,99081.44
2022-10-01T13:43:31.967Z,99082.44
2022-10-01T13:46:09.147Z,99079.19
2022-10-01T13:48:37.855Z,99077.75
2022-10-01T13:51:13.068Z,99071.78
2022-10-01T13:53:42.852Z,99069.38
2022-10-01T13:56:13.256Z,99079.94
2022-10-01T13:58:42.831Z,99080.78
2022-10-01T14:01:39.379Z,99078.38
2022-10-01T14:04:09.572Z,99066.09
2022-10-01T14:06:37.260Z,99072.06
2022-10-01T14:09:11.247Z,99055.47
2022-10-01T14:11:58.151Z,99060.78
2022-10-01T14:14:53.162Z,99059.06
2022-10-01T14:17:26.787Z,99058.03
2022-10-01T14:19:54.576Z,99051.06
2022-10-01T14:22:41.227Z,99049.22
2022-10-01T14:25:41.069Z,99043.06
2022-10-01T14:28:34.145Z,99043.00
2022-10-01T14:31:37.680Z,99034.47
2022-10-01T14:34:19.931Z,99033.88
2022-10-01T14:36:51.764Z,99037.59
2022-10-01T14:39:24.206Z,99028.16
2022-10-01T14:41:53.272Z,99039.84
2022-10-01T14:44:39.325Z,99041.72
2022-10-01T14:47:26.286Z,99035.72
2022-10-01T14:49:54.630Z,99030.66
2022-10-01T14:52:28.072Z,99032.50
2022-10-01T14:55:01.864Z,99024.78
2022-10-01T14:57:41.332Z,99021.34
2022-10-01T15:00:17.806Z,99021.31
2022-10-01T15:02:46.567Z,99018.09
2022-10-01T15:05:33.359Z,99021.84
2022-10-01T15:08:20.148Z,99013.28
2022-10-01T15:10:52.252Z,99016.09
2022-10-01T15:13:26.838Z,99008.50
2022-10-01T15:15:54.864Z,99008.56
2022-10-01T15:18:22.609Z,99009.75
2022-10-01T15:21:10.933Z,99001.22
2022-10-01T15:23:39.555Z,98997.94
2022-10-01T15:26:10.053Z,99004.38
2022-10-01T15:28:37.833Z,98998.41
2022-10-01T15:31:06.447Z,98993.53
2022-10-01T15:33:36.573Z,98996.41
2022-10-01T15:36:08.934Z,98991.44
2022-10-01T15:38:36.300Z,98991.50
2022-10-01T15:41:29.831Z,98988.22
2022-10-01T15:43:52.451Z,98983.09
2022-10-01T15:46:29.325Z,98982.47
2022-10-01T15:49:15.236Z,98977.31
2022-10-01T15:52:22.551Z,98975.81
2022-10-01T15:54:58.189Z,98971.69
2022-10-01T15:57:27.347Z,98969.97
2022-10-01T15:59:55.360Z,98969.25
2022-10-01T16:02:28.491Z,98972.84
2022-10-01T16:05:04.444Z,98967.78
2022-10-01T16:07:33.726Z,98970.44
2022-10-01T16:10:32.093Z,98969.00
2022-10-01T16:12:59.765Z,98970.84
2022-10-01T16:15:29.363Z,98973.69
2022-10-01T16:18:02.557Z,98964.25
2022-10-01T16:20:36.072Z,98970.41
2022-10-01T16:23:40.388Z,98963.53
2022-10-01T16:26:30.086Z,98960.16
2022-10-01T16:28:58.897Z,98948.88
2022-10-01T16:31:26.146Z,98940.25
2022-10-01T16:33:53.334Z,98940.34
2022-10-01T16:36:21.846Z,98936.88
2022-10-01T16:38:48.868Z,98938.72
2022-10-01T16:41:22.754Z,98937.88
2022-10-01T16:43:51.036Z,98925.63
2022-10-01T16:46:18.180Z,98923.81
2022-10-01T16:48:49.461Z,98905.56
2022-10-01T16:51:16.558Z,98908.03
2022-10-01T16:53:43.784Z,98909.69
2022-10-01T16:56:14.308Z,98915.72
2022-10-01T16:58:43.278Z,98915.72
2022-10-01T17:01:14.322Z,98907.00
2022-10-01T17:03:41.500Z,98908.91
2022-10-01T17:06:08.779Z,98902.88
2022-10-01T17:08:35.853Z,98900.25
2022-10-01T17:11:03.319Z,98906.47
2022-10-01T17:13:35.710Z,98906.59
2022-10-01T17:16:05.042Z,98907.56
2022-10-01T17:18:32.527Z,98914.56
2022-10-01T17:20:59.616Z,98909.34
2022-10-01T17:23:26.548Z,98912.00
2022-10-01T17:25:53.570Z,98900.69
2022-10-01T17:28:21.081Z,98910.22
2022-10-01T17:30:49.206Z,98911.94
2022-10-01T17:33:19.400Z,98908.53
2022-10-01T17:35:51.914Z,98905.91
2022-10-01T17:38:19.512Z,98905.31
2022-10-01T17:40:47.077Z,98902.84
2022-10-01T17:43:15.744Z,98904.88
2022-10-01T17:45:43.628Z,98905.03
2022-10-01T17:48:10.844Z,98909.53
2022-10-01T17:50:43.570Z,98909.72
2022-10-01T17:53:12.036Z,98914.13
2022-10-01T17:55:42.800Z,98909.91
2022-10-01T17:58:10.169Z,98914.44
2022-10-01T18:00:37.384Z,98907.66
2022-10-01T18:03:04.657Z,98907.00
2022-10-01T18:05:32.092Z,98907.09
2022-10-01T18:07:59.124Z,98903.78
2022-10-01T18:10:26.323Z,98908.31
2022-10-01T18:12:53.333Z,98903.28
2022-10-01T18:15:22.884Z,98895.47
2022-10-01T18:20:41.668Z,98893.09
2022-10-01T18:23:08.771Z,98894.19
2022-10-01T18:34:03.057Z,98888.53
2022-10-01T18:36:49.030Z,98899.91
2022-10-01T18:39:34.584Z,98895.75
2022-10-01T18:42:39.528Z,98893.22
2022-10-01T18:45:14.990Z,98889.03
2022-10-01T18:48:04.151Z,98880.50
2022-10-01T18:50:46.996Z,98886.81
2022-10-01T18:53:40.792Z,98885.16
2022-10-01T18:56:39.273Z,98882.56
2022-10-01T18:59:31.861Z,98891.19
2022-10-01T19:02:21.402Z,98890.38
2022-10-01T19:04:53.918Z,98882.66
2022-10-01T19:07:58.439Z,98886.19
2022-10-01T19:10:31.344Z,98875.13
2022-10-01T19:13:30.554Z,98875.25
2022-10-01T19:16:15.768Z,98880.69
2022-10-01T19:19:20.167Z,98880.06
2022-10-01T19:21:55.655Z,98882.94
2022-10-01T19:24:42.160Z,98887.69
2022-10-01T19:27:27.448Z,98887.81
2022-10-01T19:30:13.513Z,98878.56
2022-10-01T19:33:02.473Z,98877.84
2022-10-01T19:35:33.796Z,98876.22
2022-10-01T19:38:15.349Z,98878.13
2022-10-01T19:40:52.935Z,98883.41
2022-10-01T19:43:39.970Z,98876.56
2022-10-01T19:46:35.112Z,98880.13
2022-10-01T19:49:27.627Z,98875.06
2022-10-01T19:51:55.275Z,98874.06
2022-10-01T19:54:30.745Z,98875.13
2022-10-01T19:57:13.434Z,98878.75
2022-10-01T19:59:41.108Z,98872.78
2022-10-01T20:02:22.282Z,98874.59
2022-10-01T20:04:54.248Z,98871.16
2022-10-01T20:07:33.668Z,98881.56
2022-10-01T20:10:25.244Z,98878.19
2022-10-01T20:13:21.110Z,98880.97
2022-10-01T20:16:13.584Z,98880.97
2022-10-01T20:19:11.179Z,98885.47
2022-10-01T20:21:44.849Z,98882.88
2022-10-01T20:24:36.359Z,98882.88
2022-10-01T20:27:12.006Z,98882.81
2022-10-01T20:29:47.220Z,98885.47
2022-10-01T20:32:23.639Z,98877.66
2022-10-01T20:35:18.724Z,98888.09
2022-10-01T20:37:52.694Z,98888.09
2022-10-01T20:40:25.279Z,98891.47
2022-10-01T20:43:11.135Z,98874.28
2022-10-01T20:45:39.852Z,98878.50
2022-10-01T20:48:19.465Z,98884.56
2022-10-01T20:50:54.659Z,98878.38
2022-10-01T20:53:40.384Z,98874.13
2022-10-01T20:56:28.799Z,98874.91
2022-10-01T20:59:01.692Z,98875.69
2022-10-01T21:01:31.742Z,98867.03
2022-10-01T21:04:10.680Z,98871.34
2022-10-01T21:06:41.643Z,98867.81
2022-10-01T21:09:37.330Z,98870.41
2022-10-01T21:12:24.564Z,98871.22
2022-10-01T21:14:54.057Z,98867.69
2022-10-01T21:17:38.656Z,98867.75
2022-10-01T21:20:27.197Z,98867.81
2022-10-01T21:23:31.866Z,98873.91
2022-10-01T21:26:10.744Z,98867.84
2022-10-01T21:29:01.211Z,98875.66
2022-10-01T21:31:50.083Z,98872.19
2022-10-01T21:34:24.861Z,98876.50
2022-10-01T21:37:13.686Z,98873.16
2022-10-01T21:39:53.787Z,98876.66
2022-10-01T21:42:59.502Z,98874.06
2022-10-01T21:46:04.179Z,98877.41
2022-10-01T21:48:55.922Z,98874.91
2022-10-01T21:51:45.542Z,98874.97
2022-10-01T21:54:35.595Z,98882.81
2022-10-01T21:57:29.812Z,98877.53
2022-10-01T22:00:11.939Z,98880.00
2022-10-01T22:02:57.907Z,98875.56
2022-10-01T22:05:50.217Z,98882.56
2022-10-01T22:08:39.339Z,98882.44
2022-10-01T22:11:14.901Z,98873.88
2022-10-01T22:13:52.063Z,98884.31
2022-10-01T22:16:20.178Z,98880.78
2022-10-01T22:18:53.061Z,98884.31
2022-10-01T22:21:47.419Z,98882.47
2022-10-01T22:24:37.780Z,98883.28
2022-10-01T22:27:13.859Z,98883.34
2022-10-01T22:29:45.261Z,98879.97
2022-10-01T22:32:13.940Z,98889.53
2022-10-01T22:35:01.022Z,98881.75
2022-10-01T22:37:40.043Z,98886.91
2022-10-01T22:40:13.481Z,98886.06
2022-10-01T22:42:45.510Z,98881.72
2022-10-01T22:45:14.440Z,98882.47
2022-10-01T22:47:56.180Z,98881.56
2022-10-01T22:50:35.827Z,98889.41
2022-10-01T22:53:14.113Z,98884.25
2022-10-01T22:55:55.289Z,98886.72
2022-10-01T22:58:39.081Z,98891.94
2022-10-01T23:01:24.944Z,98884.09
2022-10-01T23:03:57.913Z,98879.81
2022-10-01T23:07:00.142Z,98874.59
2022-10-01T23:09:50.941Z,98878.97
2022-10-01T23:12:41.145Z,98890.25
2022-10-01T23:15:23.299Z,98877.22
2022-10-01T23:18:08.879Z,98892.72
2022-10-01T23:21:25.102Z,98891.78
2022-10-01T23:24:22.201Z,98893.38
2022-10-01T23:27:28.481Z,98893.34
2022-10-01T23:30:18.222Z,98894.94
2022-10-01T23:33:09.673Z,98892.25
2022-10-01T23:35:59.129Z,98898.28
2022-10-01T23:38:42.659Z,98892.97
2022-10-01T23:41:18.260Z,98898.97
2022-10-01T23:43:48.308Z,98900.66
2022-10-01T23:46:24.201Z,98902.34
2022-10-01T23:49:15.026Z,98902.41
2022-10-01T23:52:06.160Z,98907.63
2022-10-01T23:55:21.102Z,98899.88
2022-10-01T23:57:51.875Z,98904.25
